Time;durP1;ratioP1;P1;durP2;ratioP2;P2;SDS_P1;SDS_P2;PMS_P1;PMS_P2;Temp;Humidity;BMP_temperature;BMP_pressure;BME280_temperature;BME280_humidity;BME280_pressure;Samples;Min_cycle;Max_cycle;Signal;HPM_P1;HPM_P2
2021/08/17 00:02:26;;;;;;;4.20;2.97;;;15.90;99.90;;;;;;5111462;28;20207;-61
2021/08/17 00:04:53;;;;;;;4.97;3.33;;;15.90;99.90;;;;;;5114167;28;20231;-61
2021/08/17 00:07:20;;;;;;;5.33;3.10;;;15.80;99.90;;;;;;5115961;28;20199;-61
2021/08/17 00:09:46;;;;;;;6.73;3.27;;;15.60;99.90;;;;;;5115595;28;20204;-61
2021/08/17 00:12:14;;;;;;;4.33;3.27;;;15.40;99.90;;;;;;5115691;28;20207;-61
2021/08/17 00:14:41;;;;;;;4.97;3.30;;;15.30;99.90;;;;;;5115242;28;20200;-61
2021/08/17 00:17:09;;;;;;;4.50;3.37;;;15.20;99.90;;;;;;5115838;28;20230;-61
2021/08/17 00:19:38;;;;;;;4.87;3.73;;;15.20;99.90;;;;;;5115267;28;20206;-61
2021/08/17 00:22:05;;;;;;;5.80;3.30;;;15.10;99.90;;;;;;5115397;28;20204;-61
2021/08/17 00:24:33;;;;;;;4.97;3.73;;;15.00;99.90;;;;;;5114957;28;20744;-61
2021/08/17 00:26:59;;;;;;;6.33;3.87;;;14.90;99.90;;;;;;5115452;28;20729;-61
2021/08/17 00:29:27;;;;;;;5.43;4.30;;;14.90;99.90;;;;;;5114760;28;20671;-62
2021/08/17 00:31:54;;;;;;;8.27;4.63;;;14.90;99.90;;;;;;5115078;28;20204;-62
2021/08/17 00:34:21;;;;;;;6.17;4.30;;;14.90;99.90;;;;;;5115041;28;20206;-62
2021/08/17 00:36:48;;;;;;;7.00;4.30;;;14.90;99.90;;;;;;5114769;28;20232;-62
2021/08/17 00:39:15;;;;;;;7.43;4.47;;;14.90;99.90;;;;;;5114889;28;20203;-62
2021/08/17 00:41:42;;;;;;;5.40;4.33;;;15.00;99.90;;;;;;5114947;28;20252;-61
2021/08/17 00:44:18;;;;;;;7.23;5.27;;;15.10;99.90;;;;;;5114526;28;20725;-61
2021/08/17 00:46:46;;;;;;;6.77;4.70;;;15.10;99.90;;;;;;5115118;28;20258;-61
2021/08/17 00:49:13;;;;;;;8.03;5.03;;;15.20;99.90;;;;;;5114990;28;20210;-62
2021/08/17 00:51:40;;;;;;;6.57;4.50;;;15.20;99.90;;;;;;5115045;28;20210;-61
2021/08/17 00:54:07;;;;;;;8.63;4.93;;;15.30;99.90;;;;;;5114756;28;20199;-61
2021/08/17 00:56:34;;;;;;;7.53;4.67;;;15.30;99.90;;;;;;5114786;28;20484;-61
2021/08/17 00:59:00;;;;;;;7.83;4.70;;;15.30;99.90;;;;;;5114559;28;20199;-61
2021/08/17 01:01:27;;;;;;;5.83;4.67;;;15.40;99.90;;;;;;5114416;28;20655;-61
2021/08/17 01:03:55;;;;;;;7.97;4.63;;;15.40;99.90;;;;;;5114331;28;20265;-62
2021/08/17 01:06:22;;;;;;;8.07;5.33;;;15.40;99.90;;;;;;5114491;28;20223;-61
2021/08/17 01:08:49;;;;;;;7.00;4.50;;;15.40;99.90;;;;;;5114182;28;20766;-62
2021/08/17 01:11:16;;;;;;;10.07;5.27;;;15.40;99.90;;;;;;5114466;28;20203;-62
2021/08/17 01:13:43;;;;;;;6.03;4.63;;;15.50;99.90;;;;;;5114536;28;20211;-61
2021/08/17 01:16:10;;;;;;;7.70;5.40;;;15.50;99.90;;;;;;5113043;28;20276;-61
2021/08/17 01:18:36;;;;;;;9.00;5.70;;;15.50;99.90;;;;;;5113891;28;20678;-61
2021/08/17 01:21:08;;;;;;;6.53;4.70;;;15.50;99.90;;;;;;5114116;28;20555;-61
2021/08/17 01:23:35;;;;;;;8.80;5.80;;;15.50;99.90;;;;;;5113676;28;20257;-61
2021/08/17 01:26:03;;;;;;;7.43;5.23;;;15.40;99.90;;;;;;5114140;28;20276;-61
2021/08/17 01:28:30;;;;;;;8.07;5.17;;;15.30;99.90;;;;;;5113879;28;20207;-62
2021/08/17 01:31:01;;;;;;;8.13;5.60;;;15.20;99.90;;;;;;5113970;28;20203;-62
2021/08/17 01:33:28;;;;;;;10.00;5.87;;;15.00;99.90;;;;;;5113960;28;20211;-61
2021/08/17 01:35:55;;;;;;;9.37;6.37;;;15.00;99.90;;;;;;5113398;28;20762;-61
2021/08/17 01:38:21;;;;;;;9.43;5.63;;;15.00;99.90;;;;;;5113283;28;20659;-61
2021/08/17 01:40:48;;;;;;;10.37;5.97;;;15.00;99.90;;;;;;5113568;28;20215;-61
2021/08/17 01:43:17;;;;;;;9.77;5.50;;;15.00;99.90;;;;;;5114372;28;20200;-62
2021/08/17 01:45:44;;;;;;;9.97;5.80;;;14.90;99.90;;;;;;5114062;28;20644;-61
2021/08/17 01:48:12;;;;;;;8.80;5.80;;;14.90;99.90;;;;;;5114185;28;20200;-62
2021/08/17 01:50:39;;;;;;;9.47;6.07;;;14.80;99.90;;;;;;5113815;28;20222;-61
2021/08/17 01:53:06;;;;;;;8.03;5.63;;;14.60;99.90;;;;;;5114232;28;20211;-61
2021/08/17 01:55:32;;;;;;;9.57;6.00;;;14.50;99.90;;;;;;5113728;28;20578;-62
2021/08/17 01:58:01;;;;;;;10.60;5.87;;;14.30;99.90;;;;;;5113767;28;20565;-61
2021/08/17 02:00:29;;;;;;;10.10;5.77;;;14.30;99.90;;;;;;5114004;28;20203;-62
2021/08/17 02:02:57;;;;;;;9.60;6.67;;;14.30;99.90;;;;;;5113811;28;20208;-61
2021/08/17 02:05:24;;;;;;;11.13;5.90;;;14.20;99.90;;;;;;5113409;28;20672;-61
2021/08/17 02:07:53;;;;;;;9.03;6.40;;;14.20;99.90;;;;;;5113466;28;20294;-61
2021/08/17 02:10:20;;;;;;;9.80;6.43;;;14.30;99.90;;;;;;5113483;28;20210;-61
2021/08/17 02:12:47;;;;;;;8.20;5.87;;;14.30;99.90;;;;;;5113231;28;20666;-61
2021/08/17 02:15:13;;;;;;;10.47;6.70;;;14.30;99.90;;;;;;5112991;28;20235;-61
2021/08/17 02:17:41;;;;;;;10.17;5.73;;;14.20;99.90;;;;;;5113548;28;20208;-62
2021/08/17 02:20:09;;;;;;;9.20;6.17;;;14.20;99.90;;;;;;5113550;28;20264;-61
2021/08/17 02:22:35;;;;;;;8.47;5.60;;;14.00;99.90;;;;;;5113459;28;20211;-62
2021/08/17 02:25:02;;;;;;;8.73;5.80;;;13.80;99.90;;;;;;5113140;28;20238;-61
2021/08/17 02:27:33;;;;;;;10.87;5.60;;;13.80;99.90;;;;;;5112849;28;20215;-61
2021/08/17 02:30:00;;;;;;;7.33;5.50;;;13.70;99.90;;;;;;5112873;28;20214;-61
2021/08/17 02:32:26;;;;;;;7.93;5.33;;;13.60;99.90;;;;;;5113150;28;20207;-62
2021/08/17 02:34:54;;;;;;;8.80;5.40;;;13.50;99.90;;;;;;5112512;28;20223;-61
2021/08/17 02:37:21;;;;;;;9.43;5.70;;;13.50;99.90;;;;;;5112979;28;20249;-61
2021/08/17 02:39:48;;;;;;;8.00;5.73;;;13.30;99.90;;;;;;5112625;28;20663;-61
2021/08/17 02:42:15;;;;;;;8.93;5.00;;;13.30;99.90;;;;;;5112890;28;20211;-61
2021/08/17 02:44:42;;;;;;;9.00;5.50;;;13.20;99.90;;;;;;5112496;28;20239;-62
2021/08/17 02:47:08;;;;;;;8.47;5.63;;;13.20;99.90;;;;;;5112415;28;20662;-60
2021/08/17 02:49:35;;;;;;;10.43;5.87;;;13.10;99.90;;;;;;5112604;28;20210;-61
2021/08/17 02:52:05;;;;;;;11.50;6.00;;;13.00;99.90;;;;;;5112432;28;20210;-61
2021/08/17 02:54:32;;;;;;;8.37;5.43;;;13.00;99.90;;;;;;5112150;28;20196;-61
2021/08/17 02:56:59;;;;;;;11.23;5.63;;;12.90;99.90;;;;;;5112334;28;20618;-61
2021/08/17 02:59:26;;;;;;;10.23;5.67;;;12.80;99.90;;;;;;5112166;28;20207;-62
2021/08/17 03:01:52;;;;;;;13.23;7.17;;;12.80;99.90;;;;;;5112101;28;20204;-61
2021/08/17 03:04:19;;;;;;;9.57;6.43;;;12.80;99.90;;;;;;5112451;28;20223;-61
2021/08/17 03:06:46;;;;;;;8.80;6.20;;;12.70;99.90;;;;;;5112314;28;20223;-61
2021/08/17 03:09:14;;;;;;;10.53;6.37;;;12.70;99.90;;;;;;5112113;28;20226;-61
2021/08/17 03:11:40;;;;;;;10.13;6.10;;;12.70;99.90;;;;;;5112141;28;20199;-61
2021/08/17 03:14:07;;;;;;;12.27;5.93;;;12.60;99.90;;;;;;5111837;28;20209;-61
2021/08/17 03:16:34;;;;;;;8.83;6.00;;;12.60;99.90;;;;;;5111943;28;20716;-61
2021/08/17 03:19:02;;;;;;;7.93;4.93;;;12.60;99.90;;;;;;5112574;28;20229;-61
2021/08/17 03:21:29;;;;;;;10.10;6.13;;;12.60;99.90;;;;;;5112294;28;20199;-61
2021/08/17 03:23:55;;;;;;;11.50;5.90;;;12.50;99.90;;;;;;5112358;28;20207;-61
2021/08/17 03:26:23;;;;;;;7.83;5.43;;;12.50;99.90;;;;;;5112364;28;20288;-61
2021/08/17 03:28:50;;;;;;;8.40;5.53;;;12.50;99.90;;;;;;5111681;28;20207;-62
2021/08/17 03:31:17;;;;;;;8.70;5.23;;;12.40;99.90;;;;;;5112279;28;20207;-61
2021/08/17 03:33:44;;;;;;;7.77;5.30;;;12.40;99.90;;;;;;5113012;28;20210;-61
2021/08/17 03:36:12;;;;;;;8.33;5.53;;;12.40;99.90;;;;;;5124598;22;20254;-59
2021/08/17 03:38:39;;;;;;;10.93;6.10;;;12.40;99.90;;;;;;5090221;28;20201;-59
2021/08/17 03:41:06;;;;;;;10.90;6.37;;;12.40;99.90;;;;;;5090789;28;20208;-59
2021/08/17 03:43:34;;;;;;;10.30;6.10;;;12.40;99.90;;;;;;5090549;28;20236;-57
2021/08/17 03:46:01;;;;;;;8.87;5.60;;;12.30;99.90;;;;;;5090557;28;20715;-60
2021/08/17 03:48:27;;;;;;;9.87;5.17;;;12.30;99.90;;;;;;5090943;28;20204;-60
2021/08/17 03:50:54;;;;;;;9.07;6.23;;;12.30;99.90;;;;;;5090838;28;20204;-57
2021/08/17 03:53:21;;;;;;;7.80;5.20;;;12.30;99.90;;;;;;5090922;28;20635;-57
2021/08/17 03:55:47;;;;;;;8.90;5.47;;;12.30;99.90;;;;;;5090656;28;20224;-56
2021/08/17 03:58:14;;;;;;;11.37;5.97;;;12.20;99.90;;;;;;5090434;28;20212;-57
2021/08/17 04:00:42;;;;;;;11.03;4.97;;;12.10;99.90;;;;;;5090668;28;20683;-57
2021/08/17 04:03:09;;;;;;;11.17;6.27;;;12.30;99.90;;;;;;5090571;28;20554;-58
2021/08/17 04:05:36;;;;;;;8.87;4.93;;;12.20;99.90;;;;;;5090836;28;20232;-58
2021/08/17 04:08:05;;;;;;;8.17;5.03;;;12.20;99.90;;;;;;5090519;28;20200;-58
2021/08/17 04:10:31;;;;;;;8.67;4.80;;;12.20;99.90;;;;;;5090487;28;20211;-58
2021/08/17 04:12:58;;;;;;;10.47;5.87;;;12.20;99.90;;;;;;5090420;28;20590;-58
2021/08/17 04:15:25;;;;;;;7.63;5.57;;;12.20;99.90;;;;;;5090451;28;20220;-58
2021/08/17 04:17:53;;;;;;;8.13;5.23;;;12.20;99.90;;;;;;5090296;28;20307;-58
2021/08/17 04:20:20;;;;;;;10.20;4.70;;;12.20;99.90;;;;;;5090484;28;20246;-57
2021/08/17 04:22:47;;;;;;;10.93;4.73;;;12.20;99.90;;;;;;5090414;28;20204;-59
2021/08/17 04:25:13;;;;;;;8.00;6.03;;;12.20;99.90;;;;;;5089967;28;20712;-58
2021/08/17 04:27:40;;;;;;;8.93;5.43;;;12.20;99.90;;;;;;5090547;28;20212;-58
2021/08/17 04:30:08;;;;;;;7.23;4.80;;;12.20;99.90;;;;;;5090459;28;20590;-59
2021/08/17 04:32:35;;;;;;;9.30;5.37;;;12.20;99.90;;;;;;5090379;28;20223;-58
2021/08/17 04:35:04;;;;;;;9.63;5.27;;;12.30;99.90;;;;;;5090402;28;20204;-58
2021/08/17 04:37:30;;;;;;;8.80;5.20;;;12.30;99.90;;;;;;5090321;28;20568;-58
2021/08/17 04:39:57;;;;;;;35.53;22.90;;;12.40;99.90;;;;;;5090114;28;20212;-59
2021/08/17 04:42:24;;;;;;;10.63;6.63;;;12.40;99.90;;;;;;5090448;28;20204;-59
2021/08/17 04:44:50;;;;;;;7.03;4.87;;;12.60;99.90;;;;;;5090113;28;20273;-58
2021/08/17 04:47:17;;;;;;;9.30;4.80;;;12.70;99.90;;;;;;5090095;28;20668;-59
2021/08/17 04:49:44;;;;;;;10.60;5.10;;;12.90;99.90;;;;;;5090233;28;20238;-59
2021/08/17 04:52:12;;;;;;;9.43;4.67;;;13.00;99.90;;;;;;5093280;28;20593;-59
2021/08/17 04:54:39;;;;;;;7.40;5.40;;;13.10;99.90;;;;;;5094102;28;20257;-58
2021/08/17 04:57:06;;;;;;;7.43;4.67;;;13.20;99.90;;;;;;5094064;28;20278;-59
2021/08/17 04:59:32;;;;;;;6.43;4.47;;;13.30;99.90;;;;;;5093551;28;20208;-59
2021/08/17 05:01:59;;;;;;;9.00;5.83;;;13.50;99.90;;;;;;5093739;28;20204;-58
2021/08/17 05:04:26;;;;;;;9.47;4.70;;;13.40;99.90;;;;;;5093361;28;20212;-59
2021/08/17 05:06:52;;;;;;;7.43;4.50;;;13.40;99.90;;;;;;5093379;28;20228;-59
2021/08/17 05:09:20;;;;;;;8.40;3.80;;;13.60;99.90;;;;;;5093563;28;20204;-59
2021/08/17 05:11:47;;;;;;;8.20;3.93;;;13.70;99.90;;;;;;5093715;28;20204;-58
2021/08/17 05:14:14;;;;;;;16.93;13.53;;;13.80;99.90;;;;;;5093197;28;20205;-59
2021/08/17 05:16:41;;;;;;;9.13;4.63;;;13.90;99.90;;;;;;5093296;28;20228;-59
2021/08/17 05:19:07;;;;;;;7.17;4.40;;;14.00;99.90;;;;;;5093272;28;20208;-58
2021/08/17 05:21:34;;;;;;;9.13;4.50;;;14.00;99.90;;;;;;5093068;28;20676;-59
2021/08/17 05:24:01;;;;;;;7.33;4.20;;;14.00;99.90;;;;;;5093236;28;20210;-59
2021/08/17 05:26:29;;;;;;;12.00;4.43;;;14.10;99.90;;;;;;5093260;28;20296;-59
2021/08/17 05:28:56;;;;;;;9.57;4.40;;;14.20;99.90;;;;;;5093194;28;20207;-58
2021/08/17 05:31:22;;;;;;;7.03;4.33;;;14.20;99.90;;;;;;5093079;28;20671;-59
2021/08/17 05:33:49;;;;;;;4.83;3.80;;;14.30;99.90;;;;;;5092732;28;20667;-58
2021/08/17 05:36:16;;;;;;;10.27;4.27;;;14.40;99.90;;;;;;5092847;28;20313;-59
2021/08/17 05:38:43;;;;;;;7.27;4.40;;;14.50;99.90;;;;;;5092962;28;20212;-59
2021/08/17 05:41:09;;;;;;;6.73;4.10;;;14.40;99.90;;;;;;5092706;28;20706;-58
2021/08/17 05:43:37;;;;;;;5.87;3.97;;;14.60;99.90;;;;;;5092852;28;20273;-59
2021/08/17 05:46:04;;;;;;;6.00;4.07;;;14.80;99.90;;;;;;5092551;28;20225;-59
2021/08/17 05:48:31;;;;;;;8.27;4.53;;;15.50;99.90;;;;;;5092473;28;20208;-62
2021/08/17 05:50:59;;;;;;;5.57;3.58;;;16.70;99.90;;;;;;5092585;28;20204;-60
2021/08/17 05:53:25;;;;;;;5.55;3.63;;;18.50;99.90;;;;;;5092267;28;20354;-60
2021/08/17 05:55:52;;;;;;;5.97;3.50;;;20.00;99.90;;;;;;5092214;28;20729;-61
2021/08/17 05:58:19;;;;;;;7.90;3.42;;;21.50;99.90;;;;;;5091820;28;20234;-58
2021/08/17 06:00:47;;;;;;;5.53;3.35;;;22.80;99.90;;;;;;5092169;28;20211;-57
2021/08/17 06:03:13;;;;;;;6.30;3.58;;;24.00;99.90;;;;;;5091777;28;20212;-57
2021/08/17 06:05:40;;;;;;;4.30;3.05;;;25.00;99.90;;;;;;5092437;28;20231;-59
2021/08/17 06:08:07;;;;;;;6.90;3.13;;;25.90;99.90;;;;;;5092314;28;20204;-59
2021/08/17 06:10:34;;;;;;;6.03;3.38;;;26.60;97.00;;;;;;5092417;28;20204;-58
2021/08/17 06:13:00;;;;;;;7.82;3.40;;;27.30;94.30;;;;;;5092255;28;20251;-59
2021/08/17 06:15:27;;;;;;;5.70;3.45;;;27.80;90.20;;;;;;5091918;28;20219;-59
2021/08/17 06:18:01;;;;;;;5.32;3.25;;;28.20;87.00;;;;;;5092287;28;20227;-57
2021/08/17 06:20:29;;;;;;;5.70;3.55;;;28.40;84.00;;;;;;5092727;28;20212;-58
2021/08/17 06:22:56;;;;;;;6.22;3.67;;;28.80;80.20;;;;;;5092316;28;20507;-60
2021/08/17 06:25:22;;;;;;;7.20;3.28;;;29.30;78.70;;;;;;5091992;28;20220;-60
2021/08/17 06:27:49;;;;;;;4.85;3.13;;;29.70;75.20;;;;;;5092073;28;20212;-60
2021/08/17 06:30:16;;;;;;;4.30;3.08;;;29.80;72.90;;;;;;5091863;28;20776;-59
2021/08/17 06:32:43;;;;;;;4.78;3.35;;;29.70;71.10;;;;;;5092283;28;20216;-60
2021/08/17 06:35:11;;;;;;;5.05;3.20;;;29.70;70.20;;;;;;5091719;28;20211;-60
2021/08/17 06:37:38;;;;;;;9.40;3.42;;;29.80;69.60;;;;;;5091853;28;20620;-60
2021/08/17 06:40:05;;;;;;;5.72;3.20;;;30.00;69.40;;;;;;5092657;28;20209;-59
2021/08/17 06:42:32;;;;;;;4.35;3.28;;;30.50;67.40;;;;;;5091852;28;20688;-58
2021/08/17 06:44:59;;;;;;;4.00;3.13;;;30.80;66.00;;;;;;5091251;28;20224;-60
2021/08/17 06:47:25;;;;;;;3.78;2.92;;;31.50;64.20;;;;;;5091568;28;20696;-59
2021/08/17 06:49:52;;;;;;;5.97;3.70;;;31.90;62.20;;;;;;5091634;28;20454;-60
2021/08/17 06:52:20;;;;;;;4.53;3.60;;;32.30;61.60;;;;;;5091653;28;20211;-59
2021/08/17 06:54:47;;;;;;;5.85;3.90;;;32.90;59.80;;;;;;5091330;28;20204;-60
2021/08/17 06:57:13;;;;;;;5.10;3.45;;;33.30;58.20;;;;;;5091364;28;20231;-60
2021/08/17 06:59:40;;;;;;;5.38;3.88;;;33.80;56.00;;;;;;5091066;28;20271;-59
2021/08/17 07:02:07;;;;;;;5.68;3.70;;;34.20;55.20;;;;;;5091388;28;20207;-59
2021/08/17 07:04:34;;;;;;;5.20;3.80;;;33.70;54.60;;;;;;5091213;28;20688;-59
2021/08/17 07:07:00;;;;;;;6.60;3.50;;;32.80;55.90;;;;;;5091283;28;20610;-60
2021/08/17 07:09:28;;;;;;;4.38;3.65;;;32.60;55.60;;;;;;5091067;28;20567;-60
2021/08/17 07:11:55;;;;;;;4.40;3.22;;;32.50;55.70;;;;;;5091363;28;20562;-60
2021/08/17 07:14:22;;;;;;;6.70;4.30;;;31.80;55.30;;;;;;5090336;28;20280;-59
2021/08/17 07:16:48;;;;;;;5.40;3.80;;;30.80;56.20;;;;;;5091188;28;20227;-60
2021/08/17 07:19:15;;;;;;;4.95;3.25;;;29.40;59.40;;;;;;5091042;28;20223;-58
2021/08/17 07:21:42;;;;;;;5.18;3.55;;;28.90;59.60;;;;;;5091317;28;20201;-59
2021/08/17 07:24:08;;;;;;;4.68;3.42;;;28.60;60.60;;;;;;5091034;28;20208;-59
2021/08/17 07:26:37;;;;;;;5.85;3.95;;;29.30;59.80;;;;;;5090855;28;20227;-59
2021/08/17 07:29:03;;;;;;;5.70;3.53;;;30.80;57.40;;;;;;5091031;28;20200;-58
2021/08/17 07:31:30;;;;;;;4.00;3.47;;;31.90;55.40;;;;;;5091069;28;20204;-59
2021/08/17 07:33:57;;;;;;;6.35;3.47;;;33.20;53.90;;;;;;5090840;28;20312;-58
2021/08/17 07:36:24;;;;;;;5.30;3.40;;;34.40;50.50;;;;;;5090762;28;20227;-60
2021/08/17 07:38:51;;;;;;;5.45;3.78;;;35.20;49.50;;;;;;5090916;28;20200;-59
2021/08/17 07:41:18;;;;;;;4.72;3.65;;;35.10;47.20;;;;;;5090997;28;20237;-58
2021/08/17 07:43:46;;;;;;;4.53;3.55;;;34.00;49.50;;;;;;5091079;28;20323;-59
2021/08/17 07:46:14;;;;;;;4.93;3.58;;;33.00;50.70;;;;;;5090931;28;20236;-59
2021/08/17 07:48:40;;;;;;;5.75;3.80;;;33.10;51.20;;;;;;5090823;28;20663;-60
2021/08/17 07:51:07;;;;;;;6.03;3.67;;;33.70;50.10;;;;;;5090746;28;20724;-60
2021/08/17 07:53:34;;;;;;;5.38;3.47;;;34.60;49.10;;;;;;5090515;28;20214;-59
2021/08/17 07:56:01;;;;;;;4.45;3.58;;;35.40;48.00;;;;;;5090635;28;20223;-62
2021/08/17 07:58:27;;;;;;;5.95;3.85;;;35.90;46.70;;;;;;5090674;28;20212;-60
2021/08/17 08:00:55;;;;;;;6.15;5.05;;;35.90;45.90;;;;;;5090936;28;20204;-58
2021/08/17 08:03:22;;;;;;;5.85;3.30;;;35.40;45.70;;;;;;5090725;28;20212;-60
2021/08/17 08:05:49;;;;;;;5.95;3.67;;;35.00;46.40;;;;;;5090444;28;20311;-59
2021/08/17 08:08:16;;;;;;;8.35;3.60;;;34.90;45.80;;;;;;5090450;28;20264;-59
2021/08/17 08:10:43;;;;;;;4.03;3.30;;;35.10;44.90;;;;;;5090642;28;20200;-58
2021/08/17 08:13:09;;;;;;;9.77;3.47;;;35.60;44.30;;;;;;5090768;28;20211;-59
2021/08/17 08:15:36;;;;;;;4.57;3.30;;;36.00;43.70;;;;;;5090445;28;20224;-58
2021/08/17 08:18:05;;;;;;;6.40;3.95;;;36.10;42.80;;;;;;5090397;28;20208;-59
2021/08/17 08:20:31;;;;;;;7.40;4.22;;;35.70;43.80;;;;;;5090360;28;20204;-59
2021/08/17 08:22:58;;;;;;;6.38;4.28;;;34.70;45.60;;;;;;5090656;28;20208;-58
2021/08/17 08:25:25;;;;;;;5.88;4.30;;;33.50;46.70;;;;;;5092365;28;20247;-59
2021/08/17 08:27:52;;;;;;;6.97;4.13;;;31.70;48.60;;;;;;5094022;28;20236;-59
2021/08/17 08:30:19;;;;;;;5.38;4.45;;;30.10;51.50;;;;;;5094324;28;20200;-59
2021/08/17 08:32:46;;;;;;;6.72;4.57;;;28.90;54.00;;;;;;5094293;28;20206;-58
2021/08/17 08:35:14;;;;;;;6.35;4.53;;;28.00;55.60;;;;;;5093908;28;20236;-59
2021/08/17 08:37:41;;;;;;;5.55;4.35;;;27.20;57.50;;;;;;5094565;28;20201;-58
2021/08/17 08:40:10;;;;;;;7.45;5.38;;;26.50;59.20;;;;;;5094308;28;20211;-58
2021/08/17 08:42:37;;;;;;;10.73;5.20;;;25.90;60.50;;;;;;5093952;28;20216;-59
2021/08/17 08:45:05;;;;;;;6.57;4.40;;;25.60;61.60;;;;;;5093783;28;20204;-58
2021/08/17 08:47:34;;;;;;;8.38;4.97;;;25.40;61.40;;;;;;5093788;28;20220;-59
2021/08/17 08:50:01;;;;;;;6.38;4.25;;;25.10;63.50;;;;;;5093533;28;20232;-57
2021/08/17 08:52:29;;;;;;;4.72;4.00;;;24.90;61.00;;;;;;5094636;28;20208;-59
2021/08/17 08:54:56;;;;;;;6.47;4.78;;;24.60;61.40;;;;;;5093863;28;20253;-59
2021/08/17 08:57:23;;;;;;;5.88;4.15;;;24.60;62.20;;;;;;5093604;28;20672;-58
2021/08/17 08:59:50;;;;;;;6.75;4.97;;;24.60;62.00;;;;;;5093729;28;20208;-59
2021/08/17 09:02:17;;;;;;;6.05;4.35;;;24.30;63.70;;;;;;5093685;28;20676;-59
2021/08/17 09:04:52;;;;;;;8.32;4.80;;;24.00;63.70;;;;;;5093902;28;20208;-60
2021/08/17 09:07:38;;;;;;;8.32;5.40;;;23.50;64.40;;;;;;5093887;28;20227;-60
2021/08/17 09:10:11;;;;;;;6.35;4.60;;;23.20;66.20;;;;;;5093991;28;20208;-60
2021/08/17 09:12:39;;;;;;;6.15;4.75;;;23.10;65.90;;;;;;5093956;28;20699;-60
2021/08/17 09:15:12;;;;;;;9.10;5.28;;;23.10;66.70;;;;;;5093205;28;20223;-60
2021/08/17 09:17:40;;;;;;;5.82;4.78;;;23.10;66.70;;;;;;5093319;28;20253;-60
2021/08/17 09:20:10;;;;;;;6.68;5.00;;;23.20;66.80;;;;;;5093412;28;20262;-62
2021/08/17 09:22:38;;;;;;;6.45;4.80;;;23.40;67.00;;;;;;5093322;28;20200;-60
2021/08/17 09:25:06;;;;;;;6.55;4.50;;;23.50;65.90;;;;;;5093085;28;20204;-60
2021/08/17 09:27:35;;;;;;;7.35;4.88;;;23.60;63.50;;;;;;5093094;28;20228;-60
2021/08/17 09:30:07;;;;;;;6.20;3.92;;;23.70;63.80;;;;;;5093257;28;20212;-60
2021/08/17 09:32:34;;;;;;;6.68;4.70;;;23.60;62.20;;;;;;5093303;28;20215;-60
2021/08/17 09:35:03;;;;;;;6.70;4.82;;;23.50;63.10;;;;;;5092721;28;20204;-60
2021/08/17 09:37:31;;;;;;;6.65;4.85;;;23.40;64.10;;;;;;5114929;22;20228;-61
2021/08/17 09:40:01;;;;;;;9.90;5.43;;;23.30;65.00;;;;;;5092952;28;20215;-61
2021/08/17 09:42:29;;;;;;;8.35;4.60;;;23.20;65.40;;;;;;5093234;28;20204;-62
2021/08/17 09:45:12;;;;;;;6.13;4.22;;;23.30;64.90;;;;;;5092760;28;20664;-61
2021/08/17 09:47:40;;;;;;;9.48;5.05;;;23.30;62.10;;;;;;5092864;28;20687;-61
2021/08/17 09:50:21;;;;;;;14.27;7.18;;;23.60;62.40;;;;;;5093167;28;20211;-61
2021/08/17 09:52:49;;;;;;;6.63;4.72;;;23.90;62.10;;;;;;5093093;28;20586;-61
2021/08/17 09:55:19;;;;;;;6.18;4.43;;;24.30;60.70;;;;;;5092847;28;20204;-61
2021/08/17 09:57:46;;;;;;;5.80;4.57;;;24.30;61.10;;;;;;5092606;28;20215;-61
2021/08/17 10:00:17;;;;;;;7.45;4.70;;;24.50;61.40;;;;;;5092691;28;20208;-61
2021/08/17 10:02:45;;;;;;;5.68;4.20;;;24.50;60.10;;;;;;5093140;28;20626;-63
2021/08/17 10:05:14;;;;;;;8.65;4.63;;;24.50;59.40;;;;;;5092723;28;20227;-62
2021/08/17 10:07:42;;;;;;;5.32;4.15;;;24.20;60.20;;;;;;5092611;28;20232;-62
2021/08/17 10:10:11;;;;;;;5.80;4.28;;;24.30;61.10;;;;;;5093205;28;20204;-61
2021/08/17 10:12:39;;;;;;;5.68;4.07;;;24.30;59.40;;;;;;5093371;28;20619;-61
2021/08/17 10:15:08;;;;;;;5.97;3.85;;;24.40;58.90;;;;;;5092773;28;20501;-61
2021/08/17 10:17:35;;;;;;;6.07;3.63;;;24.40;58.70;;;;;;5092783;28;20228;-62
2021/08/17 10:20:02;;;;;;;5.25;3.88;;;24.50;58.70;;;;;;5092629;28;20212;-62
2021/08/17 10:22:29;;;;;;;6.65;4.13;;;24.70;59.40;;;;;;5092265;28;20743;-61
2021/08/17 10:25:05;;;;;;;7.05;5.05;;;24.80;59.90;;;;;;5092104;28;20386;-61
2021/08/17 10:27:34;;;;;;;6.65;4.20;;;24.80;59.80;;;;;;5092032;28;20227;-61
2021/08/17 10:30:07;;;;;;;5.35;4.13;;;24.70;59.20;;;;;;5092467;28;20201;-61
2021/08/17 10:32:42;;;;;;;4.43;3.92;;;24.60;59.30;;;;;;5092205;28;20212;-61
2021/08/17 10:35:33;;;;;;;5.47;4.28;;;24.60;59.40;;;;;;5091855;28;20207;-61
2021/08/17 10:38:40;;;;;;;6.00;4.63;;;24.80;59.70;;;;;;5091819;28;20200;-61
2021/08/17 10:41:09;;;;;;;4.63;3.70;;;24.80;59.30;;;;;;5091999;28;20211;-61
2021/08/17 10:44:11;;;;;;;6.75;4.85;;;24.80;59.90;;;;;;5091876;28;20407;-61
2021/08/17 10:46:49;;;;;;;7.65;5.38;;;24.80;60.10;;;;;;5072057;28;20255;-61
2021/08/17 10:49:46;;;;;;;6.70;4.78;;;24.80;60.70;;;;;;5091473;28;20207;-61
2021/08/17 10:52:32;;;;;;;7.00;4.50;;;24.80;61.20;;;;;;5083075;28;20204;-62
2021/08/17 10:55:23;;;;;;;6.85;4.00;;;24.80;59.40;;;;;;5091296;28;20208;-62
2021/08/17 10:57:52;;;;;;;5.78;4.53;;;24.70;60.00;;;;;;5091610;28;20204;-61
2021/08/17 11:00:51;;;;;;;6.70;4.32;;;24.70;61.00;;;;;;5091752;28;20204;-61
2021/08/17 11:03:38;;;;;;;5.45;4.38;;;24.60;60.20;;;;;;5092093;28;20196;-62
2021/08/17 11:06:05;;;;;;;4.18;3.47;;;24.50;61.40;;;;;;5091495;28;20239;-61
2021/08/17 11:08:39;;;;;;;4.00;3.17;;;24.50;59.70;;;;;;5091547;28;20247;-61
2021/08/17 11:11:17;;;;;;;6.20;4.30;;;24.30;57.60;;;;;;5091477;28;20227;-61
2021/08/17 11:14:03;;;;;;;5.35;4.60;;;24.10;59.20;;;;;;5091679;28;20271;-61
2021/08/17 11:16:30;;;;;;;5.45;4.20;;;24.10;60.40;;;;;;5091704;28;20231;-61
2021/08/17 11:18:59;;;;;;;6.30;4.18;;;23.90;62.10;;;;;;5091724;28;20211;-61
2021/08/17 11:21:30;;;;;;;6.82;3.72;;;23.80;61.90;;;;;;5091630;28;20204;-61
2021/08/17 11:24:15;;;;;;;5.43;3.63;;;23.80;62.00;;;;;;5091595;28;20583;-61
2021/08/17 11:26:45;;;;;;;6.68;3.35;;;23.90;61.50;;;;;;5092246;28;20232;-60
2021/08/17 11:29:24;;;;;;;5.75;3.35;;;23.90;59.70;;;;;;5091508;28;20204;-62
2021/08/17 11:31:52;;;;;;;6.30;4.35;;;23.70;59.80;;;;;;5092253;28;20231;-62
2021/08/17 11:34:22;;;;;;;4.43;3.40;;;23.40;60.50;;;;;;5091817;28;20212;-62
2021/08/17 11:37:01;;;;;;;4.45;3.03;;;23.30;60.10;;;;;;5092023;28;20613;-62
2021/08/17 11:39:33;;;;;;;7.07;3.47;;;23.00;60.60;;;;;;5091912;28;20207;-62
2021/08/17 11:42:00;;;;;;;4.70;3.40;;;22.80;60.80;;;;;;5093846;28;20204;-62
2021/08/17 11:44:28;;;;;;;5.57;3.67;;;22.50;62.10;;;;;;5091588;28;20672;-62
2021/08/17 11:47:10;;;;;;;5.00;3.10;;;22.40;63.30;;;;;;5090974;28;20259;-62
2021/08/17 11:49:39;;;;;;;4.65;3.30;;;22.40;62.00;;;;;;5090934;28;20247;-62
2021/08/17 11:52:09;;;;;;;4.90;3.10;;;22.30;60.00;;;;;;5090879;28;20219;-62
2021/08/17 11:54:59;;;;;;;4.82;3.40;;;22.10;61.20;;;;;;5090635;28;20215;-66
2021/08/17 11:57:31;;;;;;;4.95;3.10;;;21.80;62.60;;;;;;5090371;28;20273;-61
2021/08/17 12:00:06;;;;;;;6.32;3.40;;;21.70;63.50;;;;;;5092004;28;20606;-61
2021/08/17 12:02:33;;;;;;;4.95;3.50;;;21.60;63.20;;;;;;5095292;28;20212;-62
2021/08/17 12:05:05;;;;;;;6.63;4.57;;;21.30;64.20;;;;;;5094728;28;20204;-62
2021/08/17 12:07:33;;;;;;;5.85;3.17;;;21.00;64.70;;;;;;5094708;28;20224;-62
2021/08/17 12:10:06;;;;;;;5.15;3.20;;;21.20;64.80;;;;;;5094551;28;20200;-62
2021/08/17 12:12:55;;;;;;;4.93;3.10;;;21.10;65.10;;;;;;5094871;28;20204;-61
2021/08/17 12:15:28;;;;;;;5.75;3.50;;;21.00;64.60;;;;;;5098059;28;20208;-61
2021/08/17 12:17:56;;;;;;;6.45;4.05;;;21.10;64.60;;;;;;5098766;28;20286;-61
2021/08/17 12:20:24;;;;;;;3.30;2.70;;;21.10;64.60;;;;;;5097842;28;20219;-62
2021/08/17 12:22:51;;;;;;;4.85;3.25;;;21.20;60.70;;;;;;5096701;28;20208;-61
2021/08/17 12:25:21;;;;;;;7.32;4.35;;;21.20;64.70;;;;;;5095239;28;20200;-61
2021/08/17 12:27:54;;;;;;;4.35;3.30;;;21.20;65.20;;;;;;5095286;28;20311;-61
2021/08/17 12:30:29;;;;;;;6.55;3.90;;;21.40;65.50;;;;;;5094891;28;20236;-62
2021/08/17 12:32:57;;;;;;;5.22;3.00;;;21.60;64.60;;;;;;5094488;28;20203;-61
2021/08/17 12:35:30;;;;;;;4.50;2.97;;;22.00;63.00;;;;;;5094358;28;20621;-61
2021/08/17 12:37:57;;;;;;;3.22;2.90;;;22.40;61.50;;;;;;5094422;28;20204;-61
2021/08/17 12:40:24;;;;;;;4.05;2.67;;;22.80;59.40;;;;;;5094292;28;20579;-61
2021/08/17 12:42:51;;;;;;;5.32;2.90;;;23.00;57.80;;;;;;5074438;28;20572;-61
2021/08/17 12:45:32;;;;;;;3.95;3.10;;;22.90;58.60;;;;;;5073704;28;20232;-60
2021/08/17 12:48:01;;;;;;;4.40;2.63;;;23.10;58.70;;;;;;5073356;28;20232;-63
2021/08/17 12:50:38;;;;;;;4.35;3.20;;;23.40;57.60;;;;;;5073739;28;20209;-62
2021/08/17 12:53:16;;;;;;;5.75;3.25;;;23.60;57.60;;;;;;5073328;28;20208;-64
2021/08/17 12:55:43;;;;;;;5.53;3.08;;;23.90;58.40;;;;;;5073008;28;20236;-63